createdAt,value
2018-04-14T00:00:46.405Z,12.87
2018-04-14T00:01:46.409Z,12.87
2018-04-14T00:02:46.409Z,12.78
2018-04-14T00:03:46.404Z,12.83
2018-04-14T00:04:46.414Z,12.83
2018-04-14T00:05:46.408Z,12.86
2018-04-14T00:06:46.403Z,12.86
2018-04-14T00:07:46.400Z,12.96
2018-04-14T00:08:46.396Z,12.87
2018-04-14T00:09:46.394Z,12.95
2018-04-14T00:10:46.397Z,12.96
2018-04-14T00:11:46.396Z,12.75
2018-04-14T00:12:46.388Z,12.75
2018-04-14T00:13:46.390Z,12.82
2018-04-14T00:14:46.388Z,12.77
2018-04-14T00:15:46.388Z,12.75
2018-04-14T00:16:46.392Z,12.72
2018-04-14T00:17:46.389Z,12.64
2018-04-14T00:18:46.387Z,12.70
2018-04-14T00:19:46.382Z,12.72
2018-04-14T00:20:46.381Z,12.75
2018-04-14T00:21:46.383Z,12.74
2018-04-14T00:22:46.376Z,12.72
2018-04-14T00:23:46.377Z,12.79
2018-04-14T00:24:46.373Z,12.71
2018-04-14T00:25:46.372Z,12.74
2018-04-14T00:26:46.371Z,12.75
2018-04-14T00:27:46.368Z,12.78
2018-04-14T00:28:46.366Z,12.77
2018-04-14T00:29:46.367Z,12.78
2018-04-14T00:30:46.365Z,12.82
2018-04-14T00:31:46.365Z,12.85
2018-04-14T00:32:46.360Z,12.82
2018-04-14T00:33:46.360Z,12.83
2018-04-14T00:34:46.354Z,12.78
2018-04-14T00:35:46.356Z,12.78
2018-04-14T00:36:46.355Z,12.86
2018-04-14T00:37:46.351Z,12.85
2018-04-14T00:38:46.349Z,12.86
2018-04-14T00:39:46.351Z,12.82
2018-04-14T00:40:46.350Z,12.79
2018-04-14T00:41:46.347Z,12.75
2018-04-14T00:42:46.344Z,12.77
2018-04-14T00:43:46.343Z,12.86
2018-04-14T00:44:46.344Z,12.77
2018-04-14T00:45:46.342Z,12.85
2018-04-14T00:46:46.335Z,12.90
2018-04-14T00:47:46.336Z,12.89
2018-04-14T00:48:46.365Z,12.97
2018-04-14T00:49:46.335Z,12.90
2018-04-14T00:50:46.333Z,12.92
2018-04-14T00:51:46.336Z,12.79
2018-04-14T00:52:46.332Z,12.86
2018-04-14T00:53:46.328Z,12.86
2018-04-14T00:54:46.330Z,12.82
2018-04-14T00:55:46.322Z,12.96
2018-04-14T00:56:46.324Z,12.97
2018-04-14T00:57:46.321Z,12.93
2018-04-14T00:58:46.322Z,12.85
2018-04-14T00:59:46.317Z,12.90
2018-04-14T01:00:46.317Z,12.93
2018-04-14T01:01:46.317Z,12.97
2018-04-14T01:02:46.315Z,12.83
2018-04-14T01:03:46.316Z,12.86
2018-04-14T01:04:46.313Z,12.87
2018-04-14T01:05:46.317Z,12.74
2018-04-14T01:06:46.314Z,12.75
2018-04-14T01:07:46.308Z,12.89
2018-04-14T01:08:46.305Z,12.85
2018-04-14T01:09:46.305Z,12.83
2018-04-14T01:10:46.303Z,12.93
2018-04-14T01:11:46.300Z,12.87
2018-04-14T01:12:46.302Z,12.86
2018-04-14T01:13:46.300Z,12.82
2018-04-14T01:14:46.299Z,12.90
2018-04-14T01:15:46.298Z,12.85
2018-04-14T01:16:46.295Z,12.83
2018-04-14T01:17:46.293Z,12.82
2018-04-14T01:18:46.305Z,12.83
2018-04-14T01:19:46.302Z,12.82
2018-04-14T01:20:46.289Z,12.93
2018-04-14T01:21:46.288Z,12.83
2018-04-14T01:22:46.349Z,12.83
2018-04-14T01:23:46.282Z,12.86
2018-04-14T01:24:46.282Z,12.86
2018-04-14T01:25:46.283Z,12.82
2018-04-14T01:26:46.286Z,12.77
2018-04-14T01:27:46.276Z,12.83
2018-04-14T01:28:46.278Z,12.78
2018-04-14T01:29:46.277Z,12.72
2018-04-14T01:30:46.276Z,12.77
2018-04-14T01:31:46.277Z,12.74
2018-04-14T01:32:46.272Z,12.71
2018-04-14T01:33:46.271Z,12.75
2018-04-14T01:34:46.273Z,12.74
2018-04-14T01:35:46.270Z,12.75
2018-04-14T01:36:46.264Z,12.72
2018-04-14T01:37:46.264Z,12.71
2018-04-14T01:38:46.263Z,12.72
2018-04-14T01:39:46.263Z,12.70
2018-04-14T01:40:46.258Z,12.75
2018-04-14T01:41:46.260Z,12.70
2018-04-14T01:42:46.256Z,12.68
2018-04-14T01:43:46.256Z,12.68
2018-04-14T01:44:46.256Z,12.72
2018-04-14T01:45:46.252Z,12.67
2018-04-14T01:46:46.250Z,12.71
2018-04-14T01:47:46.250Z,12.70
2018-04-14T01:48:46.242Z,12.72
2018-04-14T01:49:46.244Z,12.74
2018-04-14T01:50:46.243Z,12.59
2018-04-14T01:51:46.245Z,12.74
2018-04-14T01:52:46.234Z,12.67
2018-04-14T01:53:46.238Z,12.77
2018-04-14T01:54:46.238Z,12.74
2018-04-14T01:55:46.238Z,12.59
2018-04-14T01:56:46.240Z,12.67
2018-04-14T01:57:46.234Z,12.57
2018-04-14T01:58:46.231Z,12.70
2018-04-14T01:59:46.228Z,12.60
2018-04-14T02:00:46.228Z,12.65
2018-04-14T02:01:46.225Z,12.65
2018-04-14T02:02:46.225Z,12.64
2018-04-14T02:03:46.226Z,12.62
2018-04-14T02:04:46.225Z,12.59
2018-04-14T02:05:46.220Z,12.59
2018-04-14T02:06:46.218Z,12.60
2018-04-14T02:07:46.218Z,12.57
2018-04-14T02:08:46.218Z,12.59
2018-04-14T02:09:46.213Z,12.56
2018-04-14T02:10:46.211Z,12.50
2018-04-14T02:11:46.209Z,12.50
2018-04-14T02:12:46.211Z,12.54
2018-04-14T02:13:46.202Z,12.53
2018-04-14T02:14:46.203Z,12.56
2018-04-14T02:15:46.204Z,12.53
2018-04-14T02:16:46.200Z,12.53
2018-04-14T02:17:46.203Z,12.53
2018-04-14T02:18:46.197Z,12.54
2018-04-14T02:19:46.196Z,12.52
2018-04-14T02:20:46.200Z,12.52
2018-04-14T02:21:46.193Z,12.52
2018-04-14T02:22:46.190Z,12.46
2018-04-14T02:23:46.190Z,12.42
2018-04-14T02:24:46.187Z,12.47
2018-04-14T02:25:46.180Z,12.45
2018-04-14T02:26:46.184Z,12.39
2018-04-14T02:27:46.184Z,12.47
2018-04-14T02:28:46.180Z,12.39
2018-04-14T02:29:46.177Z,12.49
2018-04-14T02:30:46.184Z,12.39
2018-04-14T02:31:46.174Z,12.39
2018-04-14T02:32:46.172Z,12.45
2018-04-14T02:33:46.173Z,12.41
2018-04-14T02:34:46.169Z,12.52
2018-04-14T02:35:46.167Z,12.41
2018-04-14T02:36:46.171Z,12.46
2018-04-14T02:37:46.156Z,12.46
2018-04-14T02:38:46.163Z,12.42
2018-04-14T02:39:46.161Z,12.52
2018-04-14T02:40:46.157Z,12.46
2018-04-14T02:41:46.156Z,12.53
2018-04-14T02:42:46.158Z,12.42
2018-04-14T02:43:46.155Z,12.50
2018-04-14T02:44:46.154Z,12.53
2018-04-14T02:45:46.146Z,12.46
2018-04-14T02:46:46.147Z,12.46
2018-04-14T02:47:46.146Z,12.42
2018-04-14T02:48:46.143Z,12.49
2018-04-14T02:49:46.139Z,12.52
2018-04-14T02:50:46.138Z,12.50
2018-04-14T02:51:46.141Z,12.57
2018-04-14T02:52:46.134Z,12.59
2018-04-14T02:53:46.136Z,12.53
2018-04-14T02:54:46.128Z,12.59
2018-04-14T02:55:46.133Z,12.52
2018-04-14T02:56:46.131Z,12.52
2018-04-14T02:57:46.125Z,12.50
2018-04-14T02:58:46.125Z,12.46
2018-04-14T02:59:46.121Z,12.56
2018-04-14T03:00:46.124Z,12.52
2018-04-14T03:01:46.115Z,12.56
2018-04-14T03:02:46.116Z,12.54
2018-04-14T03:03:46.117Z,12.52
2018-04-14T03:04:46.111Z,12.53
2018-04-14T03:05:46.111Z,12.50
2018-04-14T03:06:46.112Z,12.53
2018-04-14T03:07:46.109Z,12.52
2018-04-14T03:08:46.115Z,12.49
2018-04-14T03:09:46.104Z,12.50
2018-04-14T03:10:46.100Z,12.52
2018-04-14T03:11:46.100Z,12.46
2018-04-14T03:12:46.104Z,12.46
2018-04-14T03:13:46.095Z,12.53
2018-04-14T03:14:46.093Z,12.53
2018-04-14T03:15:46.094Z,12.54
2018-04-14T03:16:46.090Z,12.50
2018-04-14T03:17:46.087Z,12.57
2018-04-14T03:18:46.085Z,12.54
2018-04-14T03:19:46.084Z,12.54
2018-04-14T03:20:46.080Z,12.50
2018-04-14T03:21:46.084Z,12.56
2018-04-14T03:22:46.078Z,12.60
2018-04-14T03:23:46.081Z,12.54
2018-04-14T03:24:46.075Z,12.52
2018-04-14T03:25:46.070Z,12.52
2018-04-14T03:26:46.071Z,12.50
2018-04-14T03:27:46.075Z,12.56
2018-04-14T03:28:46.061Z,12.56
2018-04-14T03:29:46.065Z,12.53
2018-04-14T03:30:46.063Z,12.56
2018-04-14T03:31:46.061Z,12.54
2018-04-14T03:32:46.058Z,12.53
2018-04-14T03:33:46.057Z,12.45
2018-04-14T03:34:46.056Z,12.45
2018-04-14T03:35:46.052Z,12.41
2018-04-14T03:36:46.052Z,12.38
2018-04-14T03:37:46.047Z,12.49
2018-04-14T03:38:46.046Z,12.47
2018-04-14T03:39:46.049Z,12.50
2018-04-14T03:40:46.043Z,12.46
2018-04-14T03:41:46.041Z,12.39
2018-04-14T03:42:46.040Z,12.31
2018-04-14T03:43:46.038Z,12.47
2018-04-14T03:44:46.035Z,12.35
2018-04-14T03:45:46.033Z,12.46
2018-04-14T03:46:46.032Z,12.41
2018-04-14T03:47:46.030Z,12.32
2018-04-14T03:48:46.025Z,12.42
2018-04-14T03:49:46.024Z,12.42
2018-04-14T03:50:46.025Z,12.46
2018-04-14T03:51:46.020Z,12.35
2018-04-14T03:52:46.016Z,12.39
2018-04-14T03:53:46.017Z,12.42
2018-04-14T03:54:46.014Z,12.42
2018-04-14T03:55:46.015Z,12.46
2018-04-14T03:56:46.017Z,12.50
2018-04-14T03:57:46.010Z,12.47
2018-04-14T03:58:46.007Z,12.39
2018-04-14T03:59:46.007Z,12.50
2018-04-14T04:00:46.001Z,12.42
2018-04-14T04:01:46.004Z,12.42
2018-04-14T04:02:46.000Z,12.42
2018-04-14T04:03:46.012Z,12.45
2018-04-14T04:04:45.992Z,12.39
2018-04-14T04:05:45.998Z,12.50
2018-04-14T04:06:45.992Z,12.50
2018-04-14T04:07:45.991Z,12.54
2018-04-14T04:08:45.993Z,12.42
2018-04-14T04:09:45.985Z,12.42
2018-04-14T04:10:45.984Z,12.41
2018-04-14T04:11:45.990Z,12.54
2018-04-14T04:12:45.980Z,12.53
2018-04-14T04:13:45.979Z,12.50
2018-04-14T04:14:45.977Z,12.41
2018-04-14T04:15:45.977Z,12.41
2018-04-14T04:16:45.971Z,12.49
2018-04-14T04:17:45.974Z,12.53
2018-04-14T04:18:45.974Z,12.53
2018-04-14T04:19:45.965Z,12.53
2018-04-14T04:20:45.964Z,12.54
2018-04-14T04:21:45.962Z,12.56
2018-04-14T04:22:45.960Z,12.54
2018-04-14T04:23:45.956Z,12.50
2018-04-14T04:24:45.953Z,12.49
2018-04-14T04:25:45.952Z,12.46
2018-04-14T04:26:45.953Z,12.42
2018-04-14T04:27:45.954Z,12.53
2018-04-14T04:28:45.946Z,12.50
2018-04-14T04:29:45.948Z,12.39
2018-04-14T04:30:45.943Z,12.49
2018-04-14T04:31:45.938Z,12.46
2018-04-14T04:32:45.939Z,12.42
2018-04-14T04:33:45.935Z,12.53
2018-04-14T04:34:45.936Z,12.49
2018-04-14T04:35:45.934Z,12.50
2018-04-14T04:36:45.929Z,12.50
2018-04-14T04:37:45.927Z,12.31
2018-04-14T04:38:45.932Z,12.32
2018-04-14T04:39:45.924Z,12.29
2018-04-14T04:40:45.921Z,12.32
2018-04-14T04:41:45.920Z,12.29
2018-04-14T04:42:45.924Z,12.34
2018-04-14T04:43:45.914Z,12.28
2018-04-14T04:44:45.914Z,12.32
2018-04-14T04:45:45.909Z,12.21
2018-04-14T04:46:45.907Z,12.24
2018-04-14T04:47:45.906Z,12.31
2018-04-14T04:48:45.981Z,12.24
2018-04-14T04:49:45.903Z,12.34
2018-04-14T04:50:45.905Z,12.20
2018-04-14T04:51:45.899Z,12.23
2018-04-14T04:52:45.894Z,12.23
2018-04-14T04:53:45.893Z,12.23
2018-04-14T04:54:45.889Z,12.23
2018-04-14T04:55:45.884Z,12.23
2018-04-14T04:56:45.887Z,12.17
2018-04-14T04:57:45.915Z,12.12
2018-04-14T04:58:45.877Z,12.17
2018-04-14T04:59:45.879Z,12.12
2018-04-14T05:00:45.876Z,12.09
2018-04-14T05:01:45.873Z,12.14
2018-04-14T05:02:45.872Z,12.07
2018-04-14T05:03:45.867Z,12.09
2018-04-14T05:04:45.863Z,12.04
2018-04-14T05:05:45.867Z,12.01
2018-04-14T05:06:45.863Z,12.04
2018-04-14T05:07:45.858Z,12.05
2018-04-14T05:08:45.854Z,12.05
2018-04-14T05:09:45.852Z,12.02
2018-04-14T05:10:45.850Z,12.05
2018-04-14T05:11:45.855Z,12.01
2018-04-14T05:12:45.839Z,11.95
2018-04-14T05:13:45.841Z,12.04
2018-04-14T05:14:45.841Z,11.98
2018-04-14T05:15:45.838Z,11.99
2018-04-14T05:16:45.832Z,12.02
2018-04-14T05:17:45.836Z,12.01
2018-04-14T05:18:45.838Z,11.95
2018-04-14T05:19:45.828Z,12.02
2018-04-14T05:20:45.825Z,11.96
2018-04-14T05:21:45.823Z,11.94
2018-04-14T05:22:45.821Z,11.99
2018-04-14T05:23:45.822Z,12.01
2018-04-14T05:24:45.815Z,12.01
2018-04-14T05:25:45.812Z,12.02
2018-04-14T05:26:45.811Z,12.09
2018-04-14T05:27:45.807Z,12.04
2018-04-14T05:28:45.806Z,12.04
2018-04-14T05:29:45.802Z,12.05
2018-04-14T05:30:45.800Z,12.05
2018-04-14T05:31:45.799Z,12.10
2018-04-14T05:32:45.794Z,12.02
2018-04-14T05:33:45.794Z,12.07
2018-04-14T05:34:45.805Z,12.09
2018-04-14T05:35:45.787Z,12.13
2018-04-14T05:36:45.784Z,12.10
2018-04-14T05:37:45.782Z,12.12
2018-04-14T05:38:45.781Z,12.14
2018-04-14T05:39:45.777Z,12.17
2018-04-14T05:40:45.775Z,12.10
2018-04-14T05:41:45.773Z,12.27
2018-04-14T05:42:45.821Z,12.28
2018-04-14T05:43:45.769Z,12.24
2018-04-14T05:44:45.765Z,12.21
2018-04-14T05:45:45.761Z,12.28
2018-04-14T05:46:45.761Z,12.31
2018-04-14T05:47:45.758Z,12.29
2018-04-14T05:48:45.754Z,12.27
2018-04-14T05:49:45.754Z,12.23
2018-04-14T05:50:45.752Z,12.32
2018-04-14T05:51:45.744Z,12.35
2018-04-14T05:52:45.743Z,12.35
2018-04-14T05:53:45.744Z,12.32
2018-04-14T05:54:45.739Z,12.39
2018-04-14T05:55:45.740Z,12.29
2018-04-14T05:56:45.736Z,12.27
2018-04-14T05:57:45.731Z,12.34
2018-04-14T05:58:45.732Z,12.24
2018-04-14T05:59:45.729Z,12.35
2018-04-14T06:00:45.732Z,12.32
2018-04-14T06:01:45.724Z,12.45
2018-04-14T06:02:45.724Z,12.28
2018-04-14T06:03:45.720Z,12.31
2018-04-14T06:04:45.728Z,12.27
2018-04-14T06:05:45.718Z,12.31
2018-04-14T06:06:45.713Z,12.32
2018-04-14T06:07:45.712Z,12.32
2018-04-14T06:08:45.710Z,12.28
2018-04-14T06:09:45.705Z,12.46
2018-04-14T06:10:45.706Z,12.46
2018-04-14T06:11:45.705Z,12.47
2018-04-14T06:12:45.696Z,12.38
2018-04-14T06:13:45.700Z,12.35
2018-04-14T06:14:45.696Z,12.29
2018-04-14T06:15:45.693Z,12.38
2018-04-14T06:16:45.686Z,12.45
2018-04-14T06:17:45.688Z,12.56
2018-04-14T06:18:45.687Z,12.54
2018-04-14T06:19:45.687Z,12.57
2018-04-14T06:20:45.682Z,12.52
2018-04-14T06:21:45.680Z,12.53
2018-04-14T06:22:45.677Z,12.56
2018-04-14T06:23:45.676Z,12.53
2018-04-14T06:24:45.673Z,12.54
2018-04-14T06:25:45.676Z,12.52
2018-04-14T06:26:45.671Z,12.53
2018-04-14T06:27:45.674Z,12.54
2018-04-14T06:28:45.663Z,12.49
2018-04-14T06:29:45.660Z,12.49
2018-04-14T06:30:45.668Z,12.45
2018-04-14T06:31:45.660Z,12.50
2018-04-14T06:32:45.656Z,12.38
2018-04-14T06:33:45.693Z,12.28
2018-04-14T06:34:45.650Z,12.37
2018-04-14T06:35:45.655Z,12.32
2018-04-14T06:36:45.647Z,12.27
2018-04-14T06:37:45.643Z,12.31
2018-04-14T06:38:45.645Z,12.21
2018-04-14T06:39:45.637Z,12.23
2018-04-14T06:40:45.636Z,12.19
2018-04-14T06:41:45.636Z,12.24
2018-04-14T06:42:45.639Z,12.32
2018-04-14T06:43:45.630Z,12.47
2018-04-14T06:44:45.629Z,12.38
2018-04-14T06:45:45.627Z,12.47
2018-04-14T06:46:45.626Z,12.54
2018-04-14T06:47:45.625Z,12.42
2018-04-14T06:48:45.622Z,12.50
2018-04-14T06:49:45.617Z,12.59
2018-04-14T06:50:45.616Z,12.49
2018-04-14T06:51:45.614Z,12.68
2018-04-14T06:52:45.610Z,12.70
2018-04-14T06:53:45.613Z,12.74
2018-04-14T06:54:45.608Z,12.83
2018-04-14T06:55:45.603Z,12.89
2018-04-14T06:56:45.604Z,12.87
2018-04-14T06:57:45.600Z,12.82
2018-04-14T06:58:45.599Z,12.96
2018-04-14T06:59:45.600Z,13.07
2018-04-14T07:00:45.597Z,13.11
2018-04-14T07:01:45.592Z,13.23
2018-04-14T07:02:45.597Z,13.26
2018-04-14T07:03:45.589Z,13.19
2018-04-14T07:04:45.588Z,13.19
2018-04-14T07:05:45.587Z,13.15
2018-04-14T07:06:45.586Z,13.20
2018-04-14T07:07:45.582Z,13.14
2018-04-14T07:08:45.580Z,13.20
2018-04-14T07:09:45.579Z,13.25
2018-04-14T07:10:45.574Z,13.30
2018-04-14T07:11:45.573Z,13.36
2018-04-14T07:12:45.572Z,13.45
2018-04-14T07:13:45.573Z,13.38
2018-04-14T07:14:45.573Z,13.45
2018-04-14T07:15:45.571Z,13.55
2018-04-14T07:16:45.565Z,13.60
2018-04-14T07:17:45.566Z,13.71
2018-04-14T07:18:45.568Z,14.22
2018-04-14T07:19:45.563Z,14.29
2018-04-14T07:20:45.638Z,14.51
2018-04-14T07:21:45.560Z,14.58
2018-04-14T07:22:45.561Z,14.83
2018-04-14T07:23:45.557Z,14.89
2018-04-14T07:24:45.554Z,15.10
2018-04-14T07:25:45.556Z,15.13
2018-04-14T07:26:45.612Z,15.43
2018-04-14T07:27:45.557Z,15.20
2018-04-14T07:28:45.551Z,15.07
2018-04-14T07:29:45.555Z,14.95
2018-04-14T07:30:45.550Z,14.81
2018-04-14T07:31:45.548Z,14.83
2018-04-14T07:32:45.549Z,14.70
2018-04-14T07:33:45.547Z,14.54
2018-04-14T07:34:45.547Z,14.77
2018-04-14T07:35:45.545Z,14.61
2018-04-14T07:36:45.555Z,14.75
2018-04-14T07:37:45.554Z,14.35
2018-04-14T07:38:45.546Z,14.45
2018-04-14T07:39:45.546Z,14.68
2018-04-14T07:40:45.547Z,14.77
2018-04-14T07:41:45.540Z,14.98
2018-04-14T07:42:45.543Z,15.07
2018-04-14T07:43:45.544Z,15.07
2018-04-14T07:44:45.543Z,14.88
2018-04-14T07:45:45.542Z,14.84
2018-04-14T07:46:45.545Z,14.81
2018-04-14T07:47:45.542Z,14.77
2018-04-14T07:48:45.541Z,14.69
2018-04-14T07:49:45.543Z,14.80
2018-04-14T07:50:45.541Z,14.69
2018-04-14T07:51:45.541Z,14.55
2018-04-14T07:52:45.543Z,14.52
2018-04-14T07:53:45.545Z,14.22
2018-04-14T07:54:45.541Z,14.24
2018-04-14T07:55:45.540Z,14.29
2018-04-14T07:56:45.538Z,14.27
2018-04-14T07:57:45.561Z,14.21
2018-04-14T07:58:45.541Z,14.33
2018-04-14T07:59:45.539Z,14.39
2018-04-14T08:00:45.538Z,14.43
2018-04-14T08:01:45.540Z,14.43
2018-04-14T08:02:45.538Z,14.45
2018-04-14T08:03:45.537Z,14.47
2018-04-14T08:04:45.537Z,14.55
2018-04-14T08:05:45.537Z,14.40
2018-04-14T08:06:45.538Z,14.62
2018-04-14T08:07:45.536Z,14.81
2018-04-14T08:08:45.536Z,15.10
2018-04-14T08:09:45.536Z,15.34
2018-04-14T08:10:45.530Z,15.34
2018-04-14T08:11:45.534Z,15.07
2018-04-14T08:12:45.537Z,15.13
2018-04-14T08:13:45.535Z,15.14
2018-04-14T08:14:45.538Z,15.09
2018-04-14T08:15:45.537Z,14.96
2018-04-14T08:16:45.542Z,14.91
2018-04-14T08:17:45.536Z,14.95
2018-04-14T08:18:45.536Z,15.14
2018-04-14T08:19:45.535Z,15.19
2018-04-14T08:20:45.541Z,15.39
2018-04-14T08:21:45.537Z,15.51
2018-04-14T08:22:45.536Z,15.80
2018-04-14T08:23:45.537Z,16.12
2018-04-14T08:24:45.551Z,16.20
2018-04-14T08:25:45.544Z,16.08
2018-04-14T08:26:45.534Z,16.24
2018-04-14T08:27:45.536Z,16.25
2018-04-14T08:28:45.540Z,16.31
2018-04-14T08:29:45.537Z,16.49
2018-04-14T08:30:45.538Z,16.45
2018-04-14T08:31:45.543Z,16.17
2018-04-14T08:32:45.536Z,16.24
2018-04-14T08:33:45.569Z,16.25
2018-04-14T08:34:45.541Z,16.24
2018-04-14T08:35:45.544Z,16.25
2018-04-14T08:36:46.192Z,16.08
2018-04-14T08:37:45.544Z,16.12
2018-04-14T08:38:45.542Z,16.31
2018-04-14T08:39:45.544Z,16.17
2018-04-14T08:40:45.539Z,16.11
2018-04-14T08:41:45.543Z,15.83
2018-04-14T08:42:45.544Z,15.68
2018-04-14T08:43:45.541Z,15.60
2018-04-14T08:44:45.541Z,15.60
2018-04-14T08:45:45.547Z,15.72
2018-04-14T08:46:45.548Z,15.62
2018-04-14T08:47:45.547Z,15.64
2018-04-14T08:48:45.594Z,15.56
2018-04-14T08:49:45.546Z,15.44
2018-04-14T08:50:45.547Z,15.49
2018-04-14T08:51:45.548Z,15.43
2018-04-14T08:52:45.551Z,15.56
2018-04-14T08:53:45.548Z,15.59
2018-04-14T08:54:45.556Z,15.67
2018-04-14T08:55:45.551Z,15.68
2018-04-14T08:56:45.551Z,15.74
2018-04-14T08:57:45.549Z,15.60
2018-04-14T08:58:45.557Z,15.35
2018-04-14T08:59:45.548Z,15.28
2018-04-14T09:00:45.555Z,15.28
2018-04-14T09:01:45.551Z,15.29
2018-04-14T09:02:45.553Z,15.16
2018-04-14T09:03:45.553Z,15.19
2018-04-14T09:04:45.556Z,15.07
2018-04-14T09:05:45.551Z,15.09
2018-04-14T09:06:45.553Z,15.16
2018-04-14T09:07:45.554Z,15.19
2018-04-14T09:08:45.553Z,15.25
2018-04-14T09:09:45.560Z,15.25
2018-04-14T09:10:45.557Z,15.27
2018-04-14T09:11:45.555Z,15.16
2018-04-14T09:12:45.554Z,15.25
2018-04-14T09:13:45.555Z,15.32
2018-04-14T09:14:45.559Z,15.46
2018-04-14T09:15:45.554Z,15.62
2018-04-14T09:16:45.556Z,15.60
2018-04-14T09:17:45.561Z,15.72
2018-04-14T09:18:45.559Z,15.72
2018-04-14T09:19:45.557Z,15.59
2018-04-14T09:20:45.558Z,15.67
2018-04-14T09:21:45.560Z,15.80
2018-04-14T09:22:45.557Z,15.87
2018-04-14T09:23:45.557Z,16.07
2018-04-14T09:24:45.561Z,16.21
2018-04-14T09:25:45.559Z,16.23
2018-04-14T09:26:45.617Z,16.11
2018-04-14T09:27:45.561Z,16.41
2018-04-14T09:28:45.565Z,16.53
2018-04-14T09:29:45.563Z,16.43
2018-04-14T09:30:45.565Z,16.46
2018-04-14T09:31:45.586Z,16.61
2018-04-14T09:32:45.564Z,16.57
2018-04-14T09:33:45.569Z,16.48
2018-04-14T09:34:45.567Z,16.49
2018-04-14T09:35:45.570Z,16.52
2018-04-14T09:36:45.571Z,16.25
2018-04-14T09:37:45.575Z,16.27
2018-04-14T09:38:45.568Z,16.28
2018-04-14T09:39:45.572Z,16.35
2018-04-14T09:40:45.579Z,16.46
2018-04-14T09:41:45.573Z,16.61
2018-04-14T09:42:45.571Z,16.61
2018-04-14T09:43:45.573Z,16.67
2018-04-14T09:44:45.573Z,16.67
2018-04-14T09:45:45.578Z,16.50
2018-04-14T09:46:45.578Z,16.58
2018-04-14T09:47:45.588Z,16.49
2018-04-14T09:48:45.578Z,16.50
2018-04-14T09:49:45.579Z,16.53
2018-04-14T09:50:45.585Z,16.57
2018-04-14T09:51:45.582Z,16.46
2018-04-14T09:52:45.583Z,16.49
2018-04-14T09:53:45.582Z,16.73
2018-04-14T09:54:45.585Z,16.68
2018-04-14T09:55:45.583Z,16.57
2018-04-14T09:56:45.584Z,16.75
2018-04-14T09:57:45.583Z,16.78
2018-04-14T09:58:45.593Z,16.89
2018-04-14T09:59:45.593Z,16.93
2018-04-14T10:00:45.588Z,16.64
2018-04-14T10:01:45.591Z,16.64
2018-04-14T10:02:45.590Z,16.67
2018-04-14T10:03:45.595Z,16.63
2018-04-14T10:04:45.592Z,16.66
2018-04-14T10:05:45.595Z,16.61
2018-04-14T10:06:45.592Z,16.64
2018-04-14T10:07:45.594Z,16.64
2018-04-14T10:08:45.598Z,16.68
2018-04-14T10:09:45.597Z,16.60
2018-04-14T10:10:45.602Z,16.68
2018-04-14T10:11:45.600Z,16.56
2018-04-14T10:12:45.599Z,16.58
2018-04-14T10:13:45.600Z,16.46
2018-04-14T10:14:45.602Z,16.24
2018-04-14T10:15:45.609Z,16.31
2018-04-14T10:16:45.605Z,16.28
2018-04-14T10:17:45.610Z,16.25
2018-04-14T10:18:45.610Z,16.24
2018-04-14T10:19:45.608Z,16.21
2018-04-14T10:20:45.608Z,16.28
2018-04-14T10:21:45.609Z,16.30
2018-04-14T10:22:45.609Z,16.33
2018-04-14T10:23:45.615Z,16.25
2018-04-14T10:24:45.608Z,16.25
2018-04-14T10:25:45.611Z,16.30
2018-04-14T10:26:45.613Z,16.31
2018-04-14T10:27:45.615Z,16.31
2018-04-14T10:28:45.615Z,16.45
2018-04-14T10:29:45.621Z,16.56
2018-04-14T10:30:45.616Z,16.66
2018-04-14T10:31:45.617Z,16.67
2018-04-14T10:32:45.618Z,16.86
2018-04-14T10:33:45.617Z,16.82
2018-04-14T10:34:45.620Z,16.86
2018-04-14T10:35:45.619Z,16.70
2018-04-14T10:36:45.624Z,16.75
2018-04-14T10:37:45.670Z,16.70
2018-04-14T10:38:45.659Z,16.71
2018-04-14T10:39:45.622Z,16.61
2018-04-14T10:40:45.656Z,16.64
2018-04-14T10:41:45.625Z,16.71
2018-04-14T10:42:45.629Z,16.75
2018-04-14T10:43:45.628Z,16.76
2018-04-14T10:44:45.629Z,16.88
2018-04-14T10:45:45.632Z,17.19
2018-04-14T10:46:45.635Z,17.34
2018-04-14T10:47:45.636Z,17.34
2018-04-14T10:48:45.632Z,17.08
2018-04-14T10:49:45.635Z,16.91
2018-04-14T10:50:45.636Z,16.91
2018-04-14T10:51:45.636Z,16.89
2018-04-14T10:52:45.640Z,16.86
2018-04-14T10:53:45.646Z,16.93
2018-04-14T10:54:45.680Z,16.93
2018-04-14T10:55:45.677Z,16.94
2018-04-14T10:56:45.642Z,16.86
2018-04-14T10:57:45.647Z,16.91
2018-04-14T10:58:45.645Z,16.91
2018-04-14T10:59:45.642Z,16.89
2018-04-14T11:00:45.644Z,16.79
2018-04-14T11:01:45.647Z,16.81
2018-04-14T11:02:45.657Z,16.94
2018-04-14T11:03:45.653Z,17.11
2018-04-14T11:04:45.654Z,17.21
2018-04-14T11:05:45.651Z,17.33
2018-04-14T11:06:45.652Z,17.49
2018-04-14T11:07:45.657Z,17.46
2018-04-14T11:08:45.654Z,17.43
2018-04-14T11:09:45.653Z,17.55
2018-04-14T11:10:45.660Z,17.37
2018-04-14T11:11:45.659Z,17.33
2018-04-14T11:12:45.666Z,17.21
2018-04-14T11:13:45.664Z,17.11
2018-04-14T11:14:45.662Z,17.01
2018-04-14T11:15:45.672Z,16.98
2018-04-14T11:16:45.664Z,17.01
2018-04-14T11:17:45.670Z,16.98
2018-04-14T11:18:45.675Z,16.93
2018-04-14T11:19:45.668Z,16.93
2018-04-14T11:20:45.672Z,16.91
2018-04-14T11:21:45.670Z,16.71
2018-04-14T11:22:45.676Z,16.66
2018-04-14T11:23:45.676Z,16.49
2018-04-14T11:24:45.676Z,16.66
2018-04-14T11:25:45.675Z,16.73
2018-04-14T11:26:45.677Z,16.81
2018-04-14T11:27:45.680Z,16.83
2018-04-14T11:28:45.685Z,17.01
2018-04-14T11:29:45.686Z,17.07
2018-04-14T11:30:45.683Z,17.22
2018-04-14T11:31:45.688Z,17.37
2018-04-14T11:32:45.687Z,17.38
2018-04-14T11:33:45.687Z,17.66
2018-04-14T11:34:45.688Z,17.82
2018-04-14T11:35:45.691Z,17.86
2018-04-14T11:36:45.687Z,17.84
2018-04-14T11:37:45.692Z,17.93
2018-04-14T11:38:45.697Z,18.05
2018-04-14T11:39:45.694Z,17.99
2018-04-14T11:40:45.696Z,18.14
2018-04-14T11:41:45.696Z,18.26
2018-04-14T11:42:45.703Z,18.07
2018-04-14T11:43:45.703Z,17.95
2018-04-14T11:44:45.700Z,18.08
2018-04-14T11:45:45.703Z,18.18
2018-04-14T11:46:45.708Z,18.15
2018-04-14T11:47:45.707Z,18.03
2018-04-14T11:48:45.707Z,18.23
2018-04-14T11:49:45.714Z,18.39
2018-04-14T11:50:45.713Z,18.50
2018-04-14T11:51:45.714Z,18.80
2018-04-14T11:52:45.714Z,18.72
2018-04-14T11:53:45.722Z,18.67
2018-04-14T11:54:45.719Z,18.51
2018-04-14T11:55:45.727Z,18.35
2018-04-14T11:56:45.725Z,18.45
2018-04-14T11:57:45.723Z,18.39
2018-04-14T11:58:45.726Z,18.44
2018-04-14T11:59:45.729Z,18.45
2018-04-14T12:00:45.729Z,18.41
2018-04-14T12:01:45.736Z,18.45
2018-04-14T12:02:45.734Z,18.11
2018-04-14T12:03:45.799Z,18.14
2018-04-14T12:04:45.741Z,18.23
2018-04-14T12:05:45.741Z,18.26
2018-04-14T12:06:45.755Z,18.14
2018-04-14T12:07:45.748Z,18.10
2018-04-14T12:08:45.747Z,17.84
2018-04-14T12:09:45.749Z,17.81
2018-04-14T12:10:45.756Z,17.72
2018-04-14T12:11:45.753Z,17.68
2018-04-14T12:12:45.755Z,17.37
2018-04-14T12:13:45.760Z,17.54
2018-04-14T12:14:45.762Z,17.49
2018-04-14T12:15:45.763Z,17.40
2018-04-14T12:16:45.762Z,17.48
2018-04-14T12:17:45.766Z,17.44
2018-04-14T12:18:45.762Z,17.56
2018-04-14T12:19:45.768Z,17.59
2018-04-14T12:20:45.771Z,17.52
2018-04-14T12:21:45.772Z,17.43
2018-04-14T12:22:45.776Z,17.59
2018-04-14T12:23:45.779Z,17.79
2018-04-14T12:24:45.779Z,17.82
2018-04-14T12:25:45.783Z,17.95
2018-04-14T12:26:45.789Z,17.82
2018-04-14T12:27:45.785Z,17.78
2018-04-14T12:28:45.782Z,17.78
2018-04-14T12:29:45.787Z,17.79
2018-04-14T12:30:45.790Z,17.77
2018-04-14T12:31:45.790Z,17.71
2018-04-14T12:32:45.791Z,17.66
2018-04-14T12:33:45.794Z,17.66
2018-04-14T12:34:45.796Z,17.82
2018-04-14T12:35:45.796Z,17.68
2018-04-14T12:36:45.800Z,17.77
2018-04-14T12:37:45.800Z,17.81
2018-04-14T12:38:45.802Z,17.72
2018-04-14T12:39:45.803Z,17.64
2018-04-14T12:40:45.803Z,17.66
2018-04-14T12:41:45.807Z,17.62
2018-04-14T12:42:45.808Z,17.81
2018-04-14T12:43:45.811Z,17.95
2018-04-14T12:44:45.813Z,17.78
2018-04-14T12:45:45.808Z,17.92
2018-04-14T12:46:45.817Z,17.89
2018-04-14T12:47:45.817Z,17.82
2018-04-14T12:48:45.824Z,17.97
2018-04-14T12:49:45.821Z,18.05
2018-04-14T12:50:45.822Z,18.02
2018-04-14T12:51:45.826Z,17.90
2018-04-14T12:52:45.824Z,17.86